sensor_id;sensor_type;location;lat;lon;timestamp;P1;durP1;ratioP1;P2;durP2;ratioP2
32228;SDS011;18717;48.034;11.186;2023-05-25T00:02:03;17.77;;;14.43;;
32228;SDS011;18717;48.034;11.186;2023-05-25T00:04:31;17.23;;;13.63;;
32228;SDS011;18717;48.034;11.186;2023-05-25T00:07:00;16.90;;;14.48;;
32228;SDS011;18717;48.034;11.186;2023-05-25T00:09:29;17.10;;;13.32;;
32228;SDS011;18717;48.034;11.186;2023-05-25T00:11:56;18.52;;;14.55;;
32228;SDS011;18717;48.034;11.186;2023-05-25T00:14:25;16.30;;;14.68;;
32228;SDS011;18717;48.034;11.186;2023-05-25T00:16:52;18.80;;;14.50;;
32228;SDS011;18717;48.034;11.186;2023-05-25T00:19:20;19.00;;;13.35;;
32228;SDS011;18717;48.034;11.186;2023-05-25T00:21:48;21.02;;;14.02;;
32228;SDS011;18717;48.034;11.186;2023-05-25T00:24:16;14.80;;;13.20;;
32228;SDS011;18717;48.034;11.186;2023-05-25T00:26:45;21.08;;;13.88;;
32228;SDS011;18717;48.034;11.186;2023-05-25T00:29:13;18.20;;;13.82;;
32228;SDS011;18717;48.034;11.186;2023-05-25T00:31:41;19.65;;;13.50;;
32228;SDS011;18717;48.034;11.186;2023-05-25T00:34:08;14.52;;;13.02;;
32228;SDS011;18717;48.034;11.186;2023-05-25T00:36:36;19.30;;;14.07;;
32228;SDS011;18717;48.034;11.186;2023-05-25T00:39:03;15.80;;;13.73;;
32228;SDS011;18717;48.034;11.186;2023-05-25T00:41:31;16.50;;;14.38;;
32228;SDS011;18717;48.034;11.186;2023-05-25T00:44:01;18.27;;;12.35;;
32228;SDS011;18717;48.034;11.186;2023-05-25T00:46:29;15.40;;;13.80;;
32228;SDS011;18717;48.034;11.186;2023-05-25T00:48:59;15.35;;;13.27;;
32228;SDS011;18717;48.034;11.186;2023-05-25T00:51:27;14.02;;;12.52;;
32228;SDS011;18717;48.034;11.186;2023-05-25T00:53:58;14.90;;;13.55;;
32228;SDS011;18717;48.034;11.186;2023-05-25T00:56:28;14.35;;;13.05;;
32228;SDS011;18717;48.034;11.186;2023-05-25T00:58:59;16.27;;;13.27;;
32228;SDS011;18717;48.034;11.186;2023-05-25T01:01:32;16.88;;;13.13;;
32228;SDS011;18717;48.034;11.186;2023-05-25T01:04:05;15.43;;;13.60;;
32228;SDS011;18717;48.034;11.186;2023-05-25T01:06:35;14.40;;;12.90;;
32228;SDS011;18717;48.034;11.186;2023-05-25T01:09:03;26.83;;;14.00;;
32228;SDS011;18717;48.034;11.186;2023-05-25T01:11:33;15.38;;;13.43;;
32228;SDS011;18717;48.034;11.186;2023-05-25T01:14:04;15.82;;;12.65;;
32228;SDS011;18717;48.034;11.186;2023-05-25T01:16:32;17.70;;;13.60;;
32228;SDS011;18717;48.034;11.186;2023-05-25T01:19:00;14.63;;;12.90;;
32228;SDS011;18717;48.034;11.186;2023-05-25T01:21:30;16.40;;;14.05;;
32228;SDS011;18717;48.034;11.186;2023-05-25T01:24:04;22.00;;;14.02;;
32228;SDS011;18717;48.034;11.186;2023-05-25T01:26:38;17.17;;;14.57;;
32228;SDS011;18717;48.034;11.186;2023-05-25T01:29:09;16.75;;;13.10;;
32228;SDS011;18717;48.034;11.186;2023-05-25T01:31:37;17.80;;;14.85;;
32228;SDS011;18717;48.034;11.186;2023-05-25T01:34:05;18.05;;;12.82;;
32228;SDS011;18717;48.034;11.186;2023-05-25T01:36:35;14.55;;;13.00;;
32228;SDS011;18717;48.034;11.186;2023-05-25T01:39:03;14.93;;;13.02;;
32228;SDS011;18717;48.034;11.186;2023-05-25T01:41:31;16.05;;;14.20;;
32228;SDS011;18717;48.034;11.186;2023-05-25T01:43:59;15.02;;;13.48;;
32228;SDS011;18717;48.034;11.186;2023-05-25T01:46:29;18.40;;;13.65;;
32228;SDS011;18717;48.034;11.186;2023-05-25T01:49:01;14.80;;;12.80;;
32228;SDS011;18717;48.034;11.186;2023-05-25T01:51:42;14.40;;;13.02;;
32228;SDS011;18717;48.034;11.186;2023-05-25T01:54:16;21.00;;;14.25;;
32228;SDS011;18717;48.034;11.186;2023-05-25T01:56:45;19.23;;;13.45;;
32228;SDS011;18717;48.034;11.186;2023-05-25T01:59:14;17.48;;;13.55;;
32228;SDS011;18717;48.034;11.186;2023-05-25T02:01:45;19.80;;;12.75;;
32228;SDS011;18717;48.034;11.186;2023-05-25T02:04:15;18.52;;;14.35;;
32228;SDS011;18717;48.034;11.186;2023-05-25T02:06:48;15.93;;;12.38;;
32228;SDS011;18717;48.034;11.186;2023-05-25T02:09:15;15.65;;;13.77;;
32228;SDS011;18717;48.034;11.186;2023-05-25T02:11:43;14.65;;;13.15;;
32228;SDS011;18717;48.034;11.186;2023-05-25T02:14:11;20.55;;;14.02;;
32228;SDS011;18717;48.034;11.186;2023-05-25T02:16:38;16.08;;;14.13;;
32228;SDS011;18717;48.034;11.186;2023-05-25T02:19:06;19.05;;;13.77;;
32228;SDS011;18717;48.034;11.186;2023-05-25T02:21:34;18.20;;;13.48;;
32228;SDS011;18717;48.034;11.186;2023-05-25T02:24:04;18.13;;;15.10;;
32228;SDS011;18717;48.034;11.186;2023-05-25T02:26:34;14.50;;;12.85;;
32228;SDS011;18717;48.034;11.186;2023-05-25T02:29:02;18.45;;;13.13;;
32228;SDS011;18717;48.034;11.186;2023-05-25T02:31:30;14.98;;;12.93;;
32228;SDS011;18717;48.034;11.186;2023-05-25T02:33:58;14.88;;;13.15;;
32228;SDS011;18717;48.034;11.186;2023-05-25T02:36:26;25.67;;;13.45;;
32228;SDS011;18717;48.034;11.186;2023-05-25T02:38:53;21.75;;;14.30;;
32228;SDS011;18717;48.034;11.186;2023-05-25T02:41:22;16.67;;;14.02;;
32228;SDS011;18717;48.034;11.186;2023-05-25T02:43:51;18.45;;;12.95;;
32228;SDS011;18717;48.034;11.186;2023-05-25T02:46:19;16.25;;;13.05;;
32228;SDS011;18717;48.034;11.186;2023-05-25T02:48:49;14.60;;;12.90;;
32228;SDS011;18717;48.034;11.186;2023-05-25T02:51:16;14.70;;;13.18;;
32228;SDS011;18717;48.034;11.186;2023-05-25T02:53:44;19.58;;;13.45;;
32228;SDS011;18717;48.034;11.186;2023-05-25T02:56:12;21.55;;;13.88;;
32228;SDS011;18717;48.034;11.186;2023-05-25T02:58:41;14.15;;;12.82;;
32228;SDS011;18717;48.034;11.186;2023-05-25T03:01:08;19.00;;;13.13;;
32228;SDS011;18717;48.034;11.186;2023-05-25T03:03:43;16.67;;;13.40;;
32228;SDS011;18717;48.034;11.186;2023-05-25T03:06:12;19.40;;;13.55;;
32228;SDS011;18717;48.034;11.186;2023-05-25T03:08:41;14.68;;;12.48;;
32228;SDS011;18717;48.034;11.186;2023-05-25T03:11:08;17.75;;;14.10;;
32228;SDS011;18717;48.034;11.186;2023-05-25T03:13:36;19.17;;;15.52;;
32228;SDS011;18717;48.034;11.186;2023-05-25T03:16:05;17.10;;;13.50;;
32228;SDS011;18717;48.034;11.186;2023-05-25T03:18:33;22.70;;;14.00;;
32228;SDS011;18717;48.034;11.186;2023-05-25T03:21:01;14.38;;;12.95;;
32228;SDS011;18717;48.034;11.186;2023-05-25T03:23:28;13.93;;;12.45;;
32228;SDS011;18717;48.034;11.186;2023-05-25T03:25:56;22.20;;;13.68;;
32228;SDS011;18717;48.034;11.186;2023-05-25T03:28:24;18.58;;;13.70;;
32228;SDS011;18717;48.034;11.186;2023-05-25T03:30:51;20.65;;;13.60;;
32228;SDS011;18717;48.034;11.186;2023-05-25T03:33:20;20.02;;;14.00;;
32228;SDS011;18717;48.034;11.186;2023-05-25T03:35:48;16.50;;;14.20;;
32228;SDS011;18717;48.034;11.186;2023-05-25T03:38:16;14.77;;;13.27;;
32228;SDS011;18717;48.034;11.186;2023-05-25T03:40:43;23.70;;;15.50;;
32228;SDS011;18717;48.034;11.186;2023-05-25T03:43:11;18.95;;;13.82;;
32228;SDS011;18717;48.034;11.186;2023-05-25T03:45:39;14.77;;;13.25;;
32228;SDS011;18717;48.034;11.186;2023-05-25T03:48:06;15.45;;;13.88;;
32228;SDS011;18717;48.034;11.186;2023-05-25T03:50:35;17.00;;;13.52;;
32228;SDS011;18717;48.034;11.186;2023-05-25T03:53:05;18.05;;;14.02;;
32228;SDS011;18717;48.034;11.186;2023-05-25T03:55:33;15.65;;;13.98;;
32228;SDS011;18717;48.034;11.186;2023-05-25T03:58:01;17.98;;;15.23;;
32228;SDS011;18717;48.034;11.186;2023-05-25T04:00:29;30.33;;;14.98;;
32228;SDS011;18717;48.034;11.186;2023-05-25T04:02:56;19.80;;;15.07;;
32228;SDS011;18717;48.034;11.186;2023-05-25T04:05:24;20.02;;;14.98;;
32228;SDS011;18717;48.034;11.186;2023-05-25T04:07:54;20.27;;;14.55;;
32228;SDS011;18717;48.034;11.186;2023-05-25T04:10:22;15.90;;;14.15;;
32228;SDS011;18717;48.034;11.186;2023-05-25T04:12:50;20.27;;;13.68;;
32228;SDS011;18717;48.034;11.186;2023-05-25T04:15:21;25.33;;;15.23;;
32228;SDS011;18717;48.034;11.186;2023-05-25T04:17:50;20.73;;;14.75;;
32228;SDS011;18717;48.034;11.186;2023-05-25T04:20:18;17.60;;;14.18;;
32228;SDS011;18717;48.034;11.186;2023-05-25T04:22:45;17.90;;;15.73;;
32228;SDS011;18717;48.034;11.186;2023-05-25T04:25:14;19.83;;;13.50;;
32228;SDS011;18717;48.034;11.186;2023-05-25T04:27:45;23.00;;;16.88;;
32228;SDS011;18717;48.034;11.186;2023-05-25T04:30:12;21.00;;;14.88;;
32228;SDS011;18717;48.034;11.186;2023-05-25T04:32:40;17.88;;;15.10;;
32228;SDS011;18717;48.034;11.186;2023-05-25T04:35:11;24.10;;;17.23;;
32228;SDS011;18717;48.034;11.186;2023-05-25T04:37:39;24.15;;;15.77;;
32228;SDS011;18717;48.034;11.186;2023-05-25T04:40:07;35.53;;;16.67;;
32228;SDS011;18717;48.034;11.186;2023-05-25T04:42:38;21.50;;;16.58;;
32228;SDS011;18717;48.034;11.186;2023-05-25T04:45:06;25.38;;;17.00;;
32228;SDS011;18717;48.034;11.186;2023-05-25T04:47:35;21.05;;;16.75;;
32228;SDS011;18717;48.034;11.186;2023-05-25T04:50:06;24.67;;;16.60;;
32228;SDS011;18717;48.034;11.186;2023-05-25T04:52:35;18.92;;;16.98;;
32228;SDS011;18717;48.034;11.186;2023-05-25T04:55:03;20.33;;;16.15;;
32228;SDS011;18717;48.034;11.186;2023-05-25T04:57:31;22.55;;;17.52;;
32228;SDS011;18717;48.034;11.186;2023-05-25T05:00:00;30.83;;;18.27;;
32228;SDS011;18717;48.034;11.186;2023-05-25T05:02:27;23.52;;;17.42;;
32228;SDS011;18717;48.034;11.186;2023-05-25T05:04:55;24.33;;;16.58;;
32228;SDS011;18717;48.034;11.186;2023-05-25T05:07:22;22.35;;;17.35;;
32228;SDS011;18717;48.034;11.186;2023-05-25T05:09:50;23.05;;;17.65;;
32228;SDS011;18717;48.034;11.186;2023-05-25T05:12:18;23.60;;;17.33;;
32228;SDS011;18717;48.034;11.186;2023-05-25T05:14:46;21.42;;;17.50;;
32228;SDS011;18717;48.034;11.186;2023-05-25T05:17:15;27.58;;;18.77;;
32228;SDS011;18717;48.034;11.186;2023-05-25T05:19:43;24.52;;;19.25;;
32228;SDS011;18717;48.034;11.186;2023-05-25T05:22:11;28.55;;;19.23;;
32228;SDS011;18717;48.034;11.186;2023-05-25T05:24:41;30.17;;;20.08;;
32228;SDS011;18717;48.034;11.186;2023-05-25T05:27:08;33.10;;;21.75;;
32228;SDS011;18717;48.034;11.186;2023-05-25T05:29:37;34.03;;;21.58;;
32228;SDS011;18717;48.034;11.186;2023-05-25T05:32:05;33.33;;;21.23;;
32228;SDS011;18717;48.034;11.186;2023-05-25T05:34:34;36.72;;;23.27;;
32228;SDS011;18717;48.034;11.186;2023-05-25T05:37:02;42.40;;;22.88;;
32228;SDS011;18717;48.034;11.186;2023-05-25T05:39:30;33.80;;;24.48;;
32228;SDS011;18717;48.034;11.186;2023-05-25T05:41:58;32.15;;;21.58;;
32228;SDS011;18717;48.034;11.186;2023-05-25T05:44:26;31.13;;;23.50;;
32228;SDS011;18717;48.034;11.186;2023-05-25T05:46:54;31.42;;;24.02;;
32228;SDS011;18717;48.034;11.186;2023-05-25T05:49:26;35.93;;;25.50;;
32228;SDS011;18717;48.034;11.186;2023-05-25T05:51:55;31.73;;;25.13;;
32228;SDS011;18717;48.034;11.186;2023-05-25T05:54:22;34.28;;;25.25;;
32228;SDS011;18717;48.034;11.186;2023-05-25T05:56:50;33.70;;;24.08;;
32228;SDS011;18717;48.034;11.186;2023-05-25T05:59:19;37.47;;;26.95;;
32228;SDS011;18717;48.034;11.186;2023-05-25T06:01:47;36.22;;;24.13;;
32228;SDS011;18717;48.034;11.186;2023-05-25T06:04:16;36.95;;;24.58;;
32228;SDS011;18717;48.034;11.186;2023-05-25T06:06:44;36.83;;;24.25;;
32228;SDS011;18717;48.034;11.186;2023-05-25T06:09:13;34.92;;;25.90;;
32228;SDS011;18717;48.034;11.186;2023-05-25T06:11:41;35.47;;;24.63;;
32228;SDS011;18717;48.034;11.186;2023-05-25T06:14:09;31.63;;;24.95;;
32228;SDS011;18717;48.034;11.186;2023-05-25T06:16:36;35.72;;;26.45;;
32228;SDS011;18717;48.034;11.186;2023-05-25T06:19:04;36.40;;;24.63;;
32228;SDS011;18717;48.034;11.186;2023-05-25T06:21:32;37.65;;;24.27;;
32228;SDS011;18717;48.034;11.186;2023-05-25T06:23:59;31.70;;;23.48;;
32228;SDS011;18717;48.034;11.186;2023-05-25T06:26:29;29.55;;;23.67;;
32228;SDS011;18717;48.034;11.186;2023-05-25T06:28:57;30.67;;;23.85;;
32228;SDS011;18717;48.034;11.186;2023-05-25T06:31:24;31.90;;;23.88;;
32228;SDS011;18717;48.034;11.186;2023-05-25T06:33:52;30.83;;;23.70;;
32228;SDS011;18717;48.034;11.186;2023-05-25T06:36:20;26.70;;;22.95;;
32228;SDS011;18717;48.034;11.186;2023-05-25T06:38:47;31.30;;;22.25;;
32228;SDS011;18717;48.034;11.186;2023-05-25T06:41:15;27.02;;;23.42;;
32228;SDS011;18717;48.034;11.186;2023-05-25T06:43:45;31.73;;;22.08;;
32228;SDS011;18717;48.034;11.186;2023-05-25T06:46:13;28.67;;;22.52;;
32228;SDS011;18717;48.034;11.186;2023-05-25T06:48:43;29.38;;;22.85;;
32228;SDS011;18717;48.034;11.186;2023-05-25T06:51:11;30.17;;;21.63;;
32228;SDS011;18717;48.034;11.186;2023-05-25T06:53:39;30.30;;;21.02;;
32228;SDS011;18717;48.034;11.186;2023-05-25T06:56:07;26.52;;;21.60;;
32228;SDS011;18717;48.034;11.186;2023-05-25T06:58:34;24.13;;;21.38;;
32228;SDS011;18717;48.034;11.186;2023-05-25T07:01:03;29.65;;;22.27;;
32228;SDS011;18717;48.034;11.186;2023-05-25T07:03:32;27.52;;;21.65;;
32228;SDS011;18717;48.034;11.186;2023-05-25T07:05:59;25.08;;;22.02;;
32228;SDS011;18717;48.034;11.186;2023-05-25T07:08:27;24.38;;;21.27;;
32228;SDS011;18717;48.034;11.186;2023-05-25T07:10:55;26.73;;;21.25;;
32228;SDS011;18717;48.034;11.186;2023-05-25T07:13:23;26.15;;;20.27;;
32228;SDS011;18717;48.034;11.186;2023-05-25T07:15:50;23.88;;;20.67;;
32228;SDS011;18717;48.034;11.186;2023-05-25T07:18:20;26.92;;;20.58;;
32228;SDS011;18717;48.034;11.186;2023-05-25T07:20:47;26.35;;;20.45;;
32228;SDS011;18717;48.034;11.186;2023-05-25T07:23:16;27.00;;;21.25;;
32228;SDS011;18717;48.034;11.186;2023-05-25T07:25:44;22.95;;;19.17;;
32228;SDS011;18717;48.034;11.186;2023-05-25T07:28:12;26.10;;;19.88;;
32228;SDS011;18717;48.034;11.186;2023-05-25T07:30:40;22.65;;;20.00;;
32228;SDS011;18717;48.034;11.186;2023-05-25T07:33:07;26.00;;;21.00;;
32228;SDS011;18717;48.034;11.186;2023-05-25T07:35:36;24.40;;;21.52;;
32228;SDS011;18717;48.034;11.186;2023-05-25T07:38:04;26.52;;;21.27;;
32228;SDS011;18717;48.034;11.186;2023-05-25T07:40:32;23.98;;;21.17;;
32228;SDS011;18717;48.034;11.186;2023-05-25T07:42:59;23.98;;;19.50;;
32228;SDS011;18717;48.034;11.186;2023-05-25T07:45:27;25.73;;;21.30;;
32228;SDS011;18717;48.034;11.186;2023-05-25T07:47:55;23.95;;;21.25;;
32228;SDS011;18717;48.034;11.186;2023-05-25T07:50:22;22.08;;;19.80;;
32228;SDS011;18717;48.034;11.186;2023-05-25T07:52:51;24.08;;;20.38;;
32228;SDS011;18717;48.034;11.186;2023-05-25T07:55:19;26.88;;;20.67;;
32228;SDS011;18717;48.034;11.186;2023-05-25T07:57:47;21.88;;;19.58;;
32228;SDS011;18717;48.034;11.186;2023-05-25T08:00:15;23.88;;;20.77;;
32228;SDS011;18717;48.034;11.186;2023-05-25T08:02:43;22.88;;;20.00;;
32228;SDS011;18717;48.034;11.186;2023-05-25T08:05:11;21.83;;;19.40;;
32228;SDS011;18717;48.034;11.186;2023-05-25T08:07:39;26.42;;;20.60;;
32228;SDS011;18717;48.034;11.186;2023-05-25T08:10:10;22.92;;;19.42;;
32228;SDS011;18717;48.034;11.186;2023-05-25T08:12:38;26.00;;;21.58;;
32228;SDS011;18717;48.034;11.186;2023-05-25T08:15:15;22.48;;;20.08;;
32228;SDS011;18717;48.034;11.186;2023-05-25T08:17:42;25.42;;;20.08;;
32228;SDS011;18717;48.034;11.186;2023-05-25T08:20:11;23.35;;;20.92;;
32228;SDS011;18717;48.034;11.186;2023-05-25T08:22:38;24.15;;;21.65;;
32228;SDS011;18717;48.034;11.186;2023-05-25T08:25:06;24.48;;;21.60;;
32228;SDS011;18717;48.034;11.186;2023-05-25T08:27:36;26.63;;;22.10;;
32228;SDS011;18717;48.034;11.186;2023-05-25T08:30:03;22.90;;;20.60;;
32228;SDS011;18717;48.034;11.186;2023-05-25T08:32:32;26.88;;;20.92;;
32228;SDS011;18717;48.034;11.186;2023-05-25T08:35:00;24.20;;;21.73;;
32228;SDS011;18717;48.034;11.186;2023-05-25T08:37:28;25.67;;;20.45;;
32228;SDS011;18717;48.034;11.186;2023-05-25T08:39:57;22.73;;;19.95;;
32228;SDS011;18717;48.034;11.186;2023-05-25T08:42:27;24.42;;;20.23;;
32228;SDS011;18717;48.034;11.186;2023-05-25T08:44:56;23.38;;;20.10;;
32228;SDS011;18717;48.034;11.186;2023-05-25T08:47:24;26.60;;;21.60;;
32228;SDS011;18717;48.034;11.186;2023-05-25T08:49:58;23.25;;;20.10;;
32228;SDS011;18717;48.034;11.186;2023-05-25T08:52:27;29.05;;;20.55;;
32228;SDS011;18717;48.034;11.186;2023-05-25T08:54:57;28.73;;;21.30;;
32228;SDS011;18717;48.034;11.186;2023-05-25T08:57:30;24.10;;;21.08;;
32228;SDS011;18717;48.034;11.186;2023-05-25T09:02:37;22.75;;;20.65;;
32228;SDS011;18717;48.034;11.186;2023-05-25T09:05:06;22.58;;;20.25;;
32228;SDS011;18717;48.034;11.186;2023-05-25T09:07:34;24.63;;;21.45;;
32228;SDS011;18717;48.034;11.186;2023-05-25T09:10:02;24.80;;;21.77;;
32228;SDS011;18717;48.034;11.186;2023-05-25T09:12:31;24.27;;;21.83;;
32228;SDS011;18717;48.034;11.186;2023-05-25T09:14:58;22.52;;;20.13;;
32228;SDS011;18717;48.034;11.186;2023-05-25T09:17:27;23.48;;;21.35;;
32228;SDS011;18717;48.034;11.186;2023-05-25T09:19:55;24.02;;;21.05;;
32228;SDS011;18717;48.034;11.186;2023-05-25T09:22:23;23.67;;;21.25;;
32228;SDS011;18717;48.034;11.186;2023-05-25T09:24:51;22.70;;;20.25;;
32228;SDS011;18717;48.034;11.186;2023-05-25T09:27:21;25.85;;;21.27;;
32228;SDS011;18717;48.034;11.186;2023-05-25T09:29:49;24.70;;;22.33;;
32228;SDS011;18717;48.034;11.186;2023-05-25T09:32:17;23.25;;;20.73;;
32228;SDS011;18717;48.034;11.186;2023-05-25T09:34:47;22.38;;;20.13;;
32228;SDS011;18717;48.034;11.186;2023-05-25T09:37:15;26.15;;;22.35;;
32228;SDS011;18717;48.034;11.186;2023-05-25T09:39:44;23.27;;;20.35;;
32228;SDS011;18717;48.034;11.186;2023-05-25T09:42:13;22.63;;;20.42;;
32228;SDS011;18717;48.034;11.186;2023-05-25T09:44:40;23.38;;;21.13;;
32228;SDS011;18717;48.034;11.186;2023-05-25T09:47:08;23.92;;;21.38;;
32228;SDS011;18717;48.034;11.186;2023-05-25T09:49:38;24.05;;;21.67;;
32228;SDS011;18717;48.034;11.186;2023-05-25T09:52:08;24.85;;;18.67;;
32228;SDS011;18717;48.034;11.186;2023-05-25T09:54:36;20.88;;;18.85;;
32228;SDS011;18717;48.034;11.186;2023-05-25T09:57:04;21.90;;;19.85;;
32228;SDS011;18717;48.034;11.186;2023-05-25T09:59:32;23.92;;;20.80;;
32228;SDS011;18717;48.034;11.186;2023-05-25T10:02:00;22.25;;;19.98;;
32228;SDS011;18717;48.034;11.186;2023-05-25T10:04:28;23.27;;;20.83;;
32228;SDS011;18717;48.034;11.186;2023-05-25T10:06:55;23.02;;;20.50;;
32228;SDS011;18717;48.034;11.186;2023-05-25T10:09:25;23.58;;;20.88;;
32228;SDS011;18717;48.034;11.186;2023-05-25T10:11:55;23.50;;;20.83;;
32228;SDS011;18717;48.034;11.186;2023-05-25T10:14:25;23.83;;;21.30;;
32228;SDS011;18717;48.034;11.186;2023-05-25T10:16:56;24.58;;;22.15;;
32228;SDS011;18717;48.034;11.186;2023-05-25T10:19:27;22.05;;;19.95;;
32228;SDS011;18717;48.034;11.186;2023-05-25T10:22:00;22.20;;;19.92;;
32228;SDS011;18717;48.034;11.186;2023-05-25T10:24:37;23.38;;;21.05;;
32228;SDS011;18717;48.034;11.186;2023-05-25T10:27:07;21.83;;;19.65;;
32228;SDS011;18717;48.034;11.186;2023-05-25T10:29:51;23.00;;;20.65;;
32228;SDS011;18717;48.034;11.186;2023-05-25T10:32:21;21.83;;;19.65;;
32228;SDS011;18717;48.034;11.186;2023-05-25T10:34:49;21.45;;;19.33;;
32228;SDS011;18717;48.034;11.186;2023-05-25T10:37:18;21.88;;;19.88;;
32228;SDS011;18717;48.034;11.186;2023-05-25T10:39:48;21.65;;;19.55;;
32228;SDS011;18717;48.034;11.186;2023-05-25T10:42:16;22.42;;;20.00;;
32228;SDS011;18717;48.034;11.186;2023-05-25T10:44:44;22.10;;;19.98;;
32228;SDS011;18717;48.034;11.186;2023-05-25T10:47:12;22.83;;;20.65;;
32228;SDS011;18717;48.034;11.186;2023-05-25T10:49:51;21.70;;;19.60;;
32228;SDS011;18717;48.034;11.186;2023-05-25T10:52:20;21.45;;;19.38;;
32228;SDS011;18717;48.034;11.186;2023-05-25T10:54:50;22.67;;;20.42;;
32228;SDS011;18717;48.034;11.186;2023-05-25T10:57:23;21.35;;;19.35;;
32228;SDS011;18717;48.034;11.186;2023-05-25T10:59:51;22.85;;;20.60;;
32228;SDS011;18717;48.034;11.186;2023-05-25T11:02:26;21.58;;;19.45;;
32228;SDS011;18717;48.034;11.186;2023-05-25T11:07:56;22.00;;;19.90;;
32228;SDS011;18717;48.034;11.186;2023-05-25T11:10:49;21.40;;;19.35;;
32228;SDS011;18717;48.034;11.186;2023-05-25T11:13:20;20.08;;;18.17;;
32228;SDS011;18717;48.034;11.186;2023-05-25T11:18:39;20.80;;;18.67;;
32228;SDS011;18717;48.034;11.186;2023-05-25T11:21:12;21.90;;;19.90;;
32228;SDS011;18717;48.034;11.186;2023-05-25T11:23:53;20.40;;;18.60;;
32228;SDS011;18717;48.034;11.186;2023-05-25T11:26:24;21.95;;;18.95;;
32228;SDS011;18717;48.034;11.186;2023-05-25T11:28:53;21.85;;;19.90;;
32228;SDS011;18717;48.034;11.186;2023-05-25T11:31:27;22.13;;;19.95;;
32228;SDS011;18717;48.034;11.186;2023-05-25T11:33:58;21.48;;;19.60;;
32228;SDS011;18717;48.034;11.186;2023-05-25T11:36:27;21.67;;;19.65;;
32228;SDS011;18717;48.034;11.186;2023-05-25T11:38:56;21.23;;;19.00;;
32228;SDS011;18717;48.034;11.186;2023-05-25T11:41:35;21.58;;;19.60;;
32228;SDS011;18717;48.034;11.186;2023-05-25T11:44:03;21.55;;;19.80;;
32228;SDS011;18717;48.034;11.186;2023-05-25T11:46:32;20.65;;;19.15;;
32228;SDS011;18717;48.034;11.186;2023-05-25T11:49:00;21.70;;;19.70;;
32228;SDS011;18717;48.034;11.186;2023-05-25T11:51:31;21.85;;;19.95;;
32228;SDS011;18717;48.034;11.186;2023-05-25T11:56:30;20.90;;;18.88;;
32228;SDS011;18717;48.034;11.186;2023-05-25T11:59:05;21.70;;;19.70;;
32228;SDS011;18717;48.034;11.186;2023-05-25T12:01:34;20.00;;;18.30;;
32228;SDS011;18717;48.034;11.186;2023-05-25T12:04:06;21.88;;;20.17;;
32228;SDS011;18717;48.034;11.186;2023-05-25T12:06:35;21.48;;;19.58;;
32228;SDS011;18717;48.034;11.186;2023-05-25T12:09:03;21.80;;;19.80;;
32228;SDS011;18717;48.034;11.186;2023-05-25T12:11:38;20.13;;;18.33;;
32228;SDS011;18717;48.034;11.186;2023-05-25T12:14:12;20.30;;;18.55;;
32228;SDS011;18717;48.034;11.186;2023-05-25T12:16:40;21.00;;;19.10;;
32228;SDS011;18717;48.034;11.186;2023-05-25T12:19:08;21.63;;;19.40;;
32228;SDS011;18717;48.034;11.186;2023-05-25T12:21:39;19.90;;;18.33;;
32228;SDS011;18717;48.034;11.186;2023-05-25T12:24:08;19.98;;;18.35;;
32228;SDS011;18717;48.034;11.186;2023-05-25T12:26:45;20.95;;;19.25;;
32228;SDS011;18717;48.034;11.186;2023-05-25T12:29:17;20.52;;;18.73;;
32228;SDS011;18717;48.034;11.186;2023-05-25T12:31:45;21.77;;;19.77;;
32228;SDS011;18717;48.034;11.186;2023-05-25T12:34:13;21.13;;;19.60;;
32228;SDS011;18717;48.034;11.186;2023-05-25T12:36:43;20.25;;;18.65;;
32228;SDS011;18717;48.034;11.186;2023-05-25T12:39:30;21.05;;;19.40;;
32228;SDS011;18717;48.034;11.186;2023-05-25T12:42:04;19.53;;;18.03;;
32228;SDS011;18717;48.034;11.186;2023-05-25T12:44:40;22.10;;;20.17;;
32228;SDS011;18717;48.034;11.186;2023-05-25T12:47:09;19.77;;;18.13;;
32228;SDS011;18717;48.034;11.186;2023-05-25T12:49:39;21.65;;;19.35;;
32228;SDS011;18717;48.034;11.186;2023-05-25T12:52:07;21.38;;;19.77;;
32228;SDS011;18717;48.034;11.186;2023-05-25T12:54:40;21.20;;;19.17;;
32228;SDS011;18717;48.034;11.186;2023-05-25T12:57:10;21.33;;;19.23;;
32228;SDS011;18717;48.034;11.186;2023-05-25T12:59:38;23.50;;;21.23;;
32228;SDS011;18717;48.034;11.186;2023-05-25T13:02:08;20.73;;;18.95;;
32228;SDS011;18717;48.034;11.186;2023-05-25T13:04:37;22.35;;;20.55;;
32228;SDS011;18717;48.034;11.186;2023-05-25T13:07:07;22.38;;;20.48;;
32228;SDS011;18717;48.034;11.186;2023-05-25T13:09:35;21.92;;;19.95;;
32228;SDS011;18717;48.034;11.186;2023-05-25T13:12:03;20.52;;;18.70;;
32228;SDS011;18717;48.034;11.186;2023-05-25T13:14:32;21.85;;;20.15;;
32228;SDS011;18717;48.034;11.186;2023-05-25T13:17:01;22.95;;;20.63;;
32228;SDS011;18717;48.034;11.186;2023-05-25T13:19:28;20.70;;;19.08;;
32228;SDS011;18717;48.034;11.186;2023-05-25T13:21:56;21.42;;;19.45;;
32228;SDS011;18717;48.034;11.186;2023-05-25T13:24:24;21.58;;;19.58;;
32228;SDS011;18717;48.034;11.186;2023-05-25T13:26:52;22.13;;;19.75;;
32228;SDS011;18717;48.034;11.186;2023-05-25T13:29:20;21.70;;;19.73;;
32228;SDS011;18717;48.034;11.186;2023-05-25T13:31:49;23.20;;;21.17;;
32228;SDS011;18717;48.034;11.186;2023-05-25T13:34:18;22.92;;;20.77;;
32228;SDS011;18717;48.034;11.186;2023-05-25T13:36:45;23.40;;;21.33;;
32228;SDS011;18717;48.034;11.186;2023-05-25T13:39:13;25.88;;;23.52;;
32228;SDS011;18717;48.034;11.186;2023-05-25T13:41:41;24.95;;;22.80;;
32228;SDS011;18717;48.034;11.186;2023-05-25T13:44:09;26.10;;;22.77;;
32228;SDS011;18717;48.034;11.186;2023-05-25T13:46:41;25.98;;;23.60;;
32228;SDS011;18717;48.034;11.186;2023-05-25T13:49:08;24.23;;;22.10;;
32228;SDS011;18717;48.034;11.186;2023-05-25T13:51:38;22.77;;;20.75;;
32228;SDS011;18717;48.034;11.186;2023-05-25T13:54:06;22.80;;;20.75;;
32228;SDS011;18717;48.034;11.186;2023-05-25T13:56:34;25.02;;;23.00;;
32228;SDS011;18717;48.034;11.186;2023-05-25T13:59:01;25.00;;;22.85;;
32228;SDS011;18717;48.034;11.186;2023-05-25T14:01:29;23.98;;;22.02;;
32228;SDS011;18717;48.034;11.186;2023-05-25T14:03:58;23.88;;;21.40;;
32228;SDS011;18717;48.034;11.186;2023-05-25T14:06:26;23.63;;;21.52;;
32228;SDS011;18717;48.034;11.186;2023-05-25T14:08:55;23.70;;;21.15;;
32228;SDS011;18717;48.034;11.186;2023-05-25T14:11:23;22.73;;;20.98;;
32228;SDS011;18717;48.034;11.186;2023-05-25T14:13:54;23.48;;;21.23;;
32228;SDS011;18717;48.034;11.186;2023-05-25T14:16:21;22.25;;;20.55;;
32228;SDS011;18717;48.034;11.186;2023-05-25T14:18:49;23.65;;;21.60;;
32228;SDS011;18717;48.034;11.186;2023-05-25T14:21:17;21.02;;;19.15;;
32228;SDS011;18717;48.034;11.186;2023-05-25T14:23:44;22.13;;;20.25;;
32228;SDS011;18717;48.034;11.186;2023-05-25T14:26:13;22.20;;;20.50;;
32228;SDS011;18717;48.034;11.186;2023-05-25T14:28:41;22.10;;;20.30;;
32228;SDS011;18717;48.034;11.186;2023-05-25T14:31:09;22.02;;;20.17;;